Time;durP1;ratioP1;P1;durP2;ratioP2;P2;SDS_P1;SDS_P2;PMS_P1;PMS_P2;Temp;Humidity;BMP_temperature;BMP_pressure;BME280_temperature;BME280_humidity;BME280_pressure;Samples;Min_cycle;Max_cycle;Signal;HPM_P1;HPM_P2
2022/09/08 00:01:10;;;;;;;;;;;20.50;99.90;;;;;;5055116;28;19924;-77
2022/09/08 00:03:37;;;;;;;;;;;20.40;99.90;;;;;;5058736;28;20424;-78
2022/09/08 00:06:05;;;;;;;;;;;20.40;99.90;;;;;;5062542;28;19979;-78
2022/09/08 00:08:34;;;;;;;;;;;20.40;99.90;;;;;;5058557;28;19968;-79
2022/09/08 00:11:02;;;;;;;;;;;20.40;99.90;;;;;;5056858;28;19963;-78
2022/09/08 00:13:31;;;;;;;;;;;20.40;99.90;;;;;;5038364;28;19924;-78
2022/09/08 00:16:02;;;;;;;;;;;20.40;99.90;;;;;;5055495;28;19932;-80
2022/09/08 00:18:29;;;;;;;;;;;20.30;99.90;;;;;;5036516;28;19955;-77
2022/09/08 00:20:56;;;;;;;;;;;20.30;99.90;;;;;;5056293;28;19932;-78
2022/09/08 00:23:23;;;;;;;;;;;20.30;99.90;;;;;;5040696;28;19940;-78
2022/09/08 00:25:51;;;;;;;;;;;20.30;99.90;;;;;;5037102;28;19929;-78
2022/09/08 00:28:19;;;;;;;;;;;20.30;99.90;;;;;;5056233;28;19974;-78
2022/09/08 00:30:46;;;;;;;;;;;20.20;99.90;;;;;;5056657;28;19983;-78
2022/09/08 00:33:13;;;;;;;;;;;20.20;99.90;;;;;;5058430;28;19935;-78
2022/09/08 00:35:42;;;;;;;;;;;20.20;99.90;;;;;;5061643;28;19928;-78
2022/09/08 00:38:09;;;;;;;;;;;20.20;99.90;;;;;;5036330;28;20019;-78
2022/09/08 00:40:45;;;;;;;;;;;20.20;99.90;;;;;;5054464;28;19974;-78
2022/09/08 00:43:30;;;;;;;;;;;20.20;99.90;;;;;;5045794;28;19924;-79
2022/09/08 00:45:58;;;;;;;;;;;20.10;99.90;;;;;;5057982;28;19975;-78
2022/09/08 00:48:26;;;;;;;;;;;20.10;99.90;;;;;;5057502;28;19924;-77
2022/09/08 00:50:53;;;;;;;;;;;20.10;99.90;;;;;;5040457;28;19925;-78
2022/09/08 00:53:20;;;;;;;;;;;20.10;99.90;;;;;;5041492;28;20351;-77
2022/09/08 00:55:47;;;;;;;;;;;20.10;99.90;;;;;;5057434;28;20074;-79
2022/09/08 00:58:16;;;;;;;;;;;20.10;99.90;;;;;;5062490;28;20055;-77
2022/09/08 01:00:43;;;;;;;;;;;20.00;99.90;;;;;;5059351;28;19970;-77
2022/09/08 01:03:10;;;;;;;;;;;20.00;99.90;;;;;;5061572;28;19936;-77
2022/09/08 01:05:44;;;;;;;;;;;20.00;99.90;;;;;;5054770;28;19925;-79
2022/09/08 01:13:49;;;;;;;;;;;19.90;99.90;;;;;;5057313;28;19931;-77
2022/09/08 01:16:16;;;;;;;;;;;19.90;99.90;;;;;;5058262;28;20636;-79
2022/09/08 01:18:43;;;;;;;;;;;19.90;99.90;;;;;;5058056;28;19962;-78
2022/09/08 01:21:17;;;;;;;;;;;19.90;99.90;;;;;;5044724;28;19925;-77
2022/09/08 01:24:03;;;;;;;;;;;19.90;99.90;;;;;;5037630;28;20015;-77
2022/09/08 01:26:35;;;;;;;;;;;19.90;99.90;;;;;;5059355;28;20014;-77
2022/09/08 01:29:05;;;;;;;;;;;19.90;99.90;;;;;;5046828;28;20387;-77
2022/09/08 01:31:32;;;;;;;;;;;19.80;99.90;;;;;;5056484;28;19936;-77
2022/09/08 01:33:59;;;;;;;;;;;19.80;99.90;;;;;;5059186;28;20448;-78
2022/09/08 01:36:26;;;;;;;;;;;19.80;99.90;;;;;;5060577;28;19948;-78
2022/09/08 01:38:53;;;;;;;;;;;19.80;99.90;;;;;;5041763;28;20031;-78
2022/09/08 01:41:22;;;;;;;;;;;19.80;99.90;;;;;;5056689;28;19990;-77
2022/09/08 01:43:49;;;;;;;;;;;19.70;99.90;;;;;;5062273;28;20371;-78
2022/09/08 01:46:17;;;;;;;;;;;19.70;99.90;;;;;;5056969;28;20011;-78
2022/09/08 01:48:44;;;;;;;;;;;19.70;99.90;;;;;;5057044;28;20385;-77
2022/09/08 01:51:11;;;;;;;;;;;19.70;99.90;;;;;;5059219;28;19924;-77
2022/09/08 01:53:38;;;;;;;;;;;19.70;99.90;;;;;;5055698;28;19928;-77
2022/09/08 01:56:05;;;;;;;;;;;19.70;99.90;;;;;;5051711;28;19925;-78
2022/09/08 01:58:32;;;;;;;;;;;19.70;99.90;;;;;;5050528;28;20374;-77
2022/09/08 02:00:59;;;;;;;;;;;19.60;99.90;;;;;;5038529;28;19933;-77
2022/09/08 02:03:27;;;;;;;;;;;19.60;99.90;;;;;;5040620;28;19929;-78
2022/09/08 02:05:59;;;;;;;;;;;19.60;99.90;;;;;;5058606;28;20403;-78
2022/09/08 02:08:25;;;;;;;;;;;19.60;99.90;;;;;;5056152;28;20690;-78
2022/09/08 02:10:53;;;;;;;;;;;19.60;99.90;;;;;;5038785;28;19932;-78
2022/09/08 02:13:20;;;;;;;;;;;19.60;99.90;;;;;;5058783;28;19928;-78
2022/09/08 02:15:47;;;;;;;;;;;19.50;99.90;;;;;;5050748;28;20101;-77
2022/09/08 02:18:13;;;;;;;;;;;19.50;99.90;;;;;;5035151;28;20025;-77
2022/09/08 02:20:42;;;;;;;;;;;19.50;99.90;;;;;;5056465;28;19932;-78
2022/09/08 02:23:08;;;;;;;;;;;19.50;99.90;;;;;;5046983;28;19928;-79
2022/09/08 02:25:37;;;;;;;;;;;19.50;99.90;;;;;;5069081;28;20002;-80
2022/09/08 02:28:04;;;;;;;;;;;19.50;99.90;;;;;;5066470;28;20677;-79
2022/09/08 02:30:33;;;;;;;;;;;19.40;99.90;;;;;;5068557;28;19935;-79
2022/09/08 02:33:00;;;;;;;;;;;19.40;99.90;;;;;;5070136;28;19933;-79
2022/09/08 02:35:57;;;;;;;;;;;19.40;99.90;;;;;;5053709;28;19925;-79
2022/09/08 02:38:26;;;;;;;;;;;19.40;99.90;;;;;;5054881;28;20393;-78
2022/09/08 02:40:52;;;;;;;;;;;19.40;99.90;;;;;;5052885;28;20770;-78
2022/09/08 02:43:20;;;;;;;;;;;19.40;99.90;;;;;;5036759;28;19968;-77
2022/09/08 02:45:47;;;;;;;;;;;19.40;99.90;;;;;;5043131;28;20349;-78
2022/09/08 02:48:16;;;;;;;;;;;19.40;99.90;;;;;;5052820;28;19929;-78
2022/09/08 02:50:43;;;;;;;;;;;19.30;99.90;;;;;;5024538;28;20016;-77
2022/09/08 02:53:09;;;;;;;;;;;19.30;99.90;;;;;;5038231;28;20414;-77
2022/09/08 02:55:38;;;;;;;;;;;19.30;99.90;;;;;;5057566;28;20022;-78
2022/09/08 02:58:06;;;;;;;;;;;19.30;99.90;;;;;;5057857;28;19951;-77
2022/09/08 03:00:34;;;;;;;;;;;19.30;99.90;;;;;;5053380;28;19962;-77
2022/09/08 03:03:01;;;;;;;;;;;19.30;99.90;;;;;;5056415;28;19959;-77
2022/09/08 03:05:28;;;;;;;;;;;19.20;99.90;;;;;;5041819;28;20019;-78
2022/09/08 03:07:55;;;;;;;;;;;19.20;99.90;;;;;;5055273;28;20021;-77
2022/09/08 03:10:23;;;;;;;;;;;19.20;99.90;;;;;;5057700;28;19932;-78
2022/09/08 03:12:53;;;;;;;;;;;19.20;99.90;;;;;;5041159;28;19937;-77
2022/09/08 04:19:19;;;;;;;;;;;18.90;99.90;;;;;;5693432;22;19935;-79
2022/09/08 04:21:47;;;;;;;;;;;18.80;99.90;;;;;;5000587;28;19932;-79
2022/09/08 04:24:14;;;;;;;;;;;18.80;99.90;;;;;;4997774;28;19930;-78
2022/09/08 04:26:42;;;;;;;;;;;18.80;99.90;;;;;;5016614;28;19976;-79
2022/09/08 04:34:40;;;;;;;;;;;18.80;99.90;;;;;;4973650;28;19933;-77
2022/09/08 04:37:13;;;;;;;;;;;18.80;99.90;;;;;;4958520;28;19933;-78
2022/09/08 04:45:19;;;;;;;;;;;18.70;99.90;;;;;;5241984;23;19989;-78
2022/09/08 04:47:48;;;;;;;;;;;18.70;99.90;;;;;;4977053;28;19926;-78
2022/09/08 05:03:32;;;;;;;;;;;18.70;99.90;;;;;;4989933;28;19926;-78
2022/09/08 05:06:32;;;;;;;;;;;18.60;99.90;;;;;;4978235;28;20017;-78
2022/09/08 05:12:13;;;;;;;;;;;18.60;99.90;;;;;;4973027;28;19933;-78
2022/09/08 05:14:44;;;;;;;;;;;18.60;99.90;;;;;;4975673;28;20460;-78
2022/09/08 05:17:13;;;;;;;;;;;18.60;99.90;;;;;;4981187;28;20415;-78
2022/09/08 05:22:25;;;;;;;;;;;18.50;99.90;;;;;;5185671;22;20403;-79
2022/09/08 05:24:55;;;;;;;;;;;18.50;99.90;;;;;;5004427;28;19925;-79
2022/09/08 05:27:24;;;;;;;;;;;18.60;99.90;;;;;;5008914;28;19931;-78
2022/09/08 05:29:53;;;;;;;;;;;18.50;99.90;;;;;;4998030;28;19932;-78
2022/09/08 05:32:24;;;;;;;;;;;18.50;99.90;;;;;;4997392;28;19925;-78
2022/09/08 05:34:56;;;;;;;;;;;18.50;99.90;;;;;;4997979;28;19926;-78
2022/09/08 05:37:26;;;;;;;;;;;18.50;99.90;;;;;;4997391;28;19926;-78
2022/09/08 05:40:00;;;;;;;;;;;18.50;99.90;;;;;;4996428;28;19961;-78
2022/09/08 05:42:33;;;;;;;;;;;18.40;99.90;;;;;;4979974;28;20344;-78
2022/09/08 05:45:08;;;;;;;;;;;18.40;99.90;;;;;;4980455;28;19930;-78
2022/09/08 05:47:48;;;;;;;;;;;18.50;99.90;;;;;;4979758;28;20037;-78
2022/09/08 05:50:18;;;;;;;;;;;18.50;99.90;;;;;;4991859;28;19926;-81
2022/09/08 05:53:22;;;;;;;;;;;18.50;99.90;;;;;;4964478;28;19976;-79
2022/09/08 05:59:11;;;;;;;;;;;18.40;99.90;;;;;;4981783;28;19933;-77
2022/09/08 06:01:37;;;;;;;;;;;18.40;99.90;;;;;;4986157;28;19926;-77
2022/09/08 06:04:04;;;;;;;;;;;18.40;99.90;;;;;;4989688;28;19958;-78
2022/09/08 06:06:32;;;;;;;;;;;18.40;99.90;;;;;;4987441;28;20008;-77
2022/09/08 06:09:00;;;;;;;;;;;18.40;99.90;;;;;;4965570;28;19932;-77
2022/09/08 06:11:28;;;;;;;;;;;18.40;99.90;;;;;;4970281;28;20756;-78
2022/09/08 06:13:55;;;;;;;;;;;18.40;99.90;;;;;;4989174;28;19925;-77
2022/09/08 06:16:24;;;;;;;;;;;18.30;99.90;;;;;;4982780;28;19926;-78
2022/09/08 06:18:51;;;;;;;;;;;18.30;99.90;;;;;;4986142;28;19934;-76
2022/09/08 06:21:19;;;;;;;;;;;18.40;99.90;;;;;;4990405;28;20041;-77
2022/09/08 06:23:48;;;;;;;;;;;18.30;99.90;;;;;;4988827;28;20024;-77
2022/09/08 06:26:26;;;;;;;;;;;18.30;99.90;;;;;;4965696;28;19936;-78
2022/09/08 06:28:56;;;;;;;;;;;18.30;99.90;;;;;;4987558;28;19926;-78
2022/09/08 06:31:27;;;;;;;;;;;18.30;99.90;;;;;;4970219;28;19988;-76
2022/09/08 06:33:54;;;;;;;;;;;18.30;99.90;;;;;;4982826;28;19933;-77
2022/09/08 06:36:23;;;;;;;;;;;18.30;99.90;;;;;;4986486;28;20472;-77
2022/09/08 06:38:53;;;;;;;;;;;18.30;99.90;;;;;;4986701;28;19969;-77
2022/09/08 06:41:21;;;;;;;;;;;18.30;99.90;;;;;;4984906;28;19956;-77
2022/09/08 06:43:50;;;;;;;;;;;18.30;99.90;;;;;;4982917;28;20014;-76
2022/09/08 06:46:20;;;;;;;;;;;18.30;99.90;;;;;;4970097;28;19929;-77
2022/09/08 06:48:48;;;;;;;;;;;18.30;99.90;;;;;;4985725;28;20299;-78
2022/09/08 06:51:23;;;;;;;;;;;18.20;99.90;;;;;;4983911;28;20347;-76
2022/09/08 06:53:53;;;;;;;;;;;18.20;99.90;;;;;;4985982;28;20003;-77
2022/09/08 06:56:25;;;;;;;;;;;18.20;99.90;;;;;;4984405;28;19973;-77
2022/09/08 06:58:57;;;;;;;;;;;18.20;99.90;;;;;;4987121;28;22415;-78
2022/09/08 07:01:25;;;;;;;;;;;18.20;99.90;;;;;;4966242;28;21282;-77
2022/09/08 07:04:02;;;;;;;;;;;18.20;99.90;;;;;;4986351;28;19929;-77
2022/09/08 07:06:33;;;;;;;;;;;18.20;99.90;;;;;;4986700;28;20239;-77
2022/09/08 07:09:04;;;;;;;;;;;18.20;99.90;;;;;;4965683;28;20642;-77
2022/09/08 07:11:36;;;;;;;;;;;18.20;99.90;;;;;;4973603;28;19926;-76
2022/09/08 07:14:08;;;;;;;;;;;18.20;99.90;;;;;;4986366;28;20420;-77
2022/09/08 07:16:38;;;;;;;;;;;18.20;99.90;;;;;;4983722;28;20269;-77
2022/09/08 07:19:12;;;;;;;;;;;18.20;99.90;;;;;;4988126;28;20191;-77
2022/09/08 07:21:44;;;;;;;;;;;18.20;99.90;;;;;;4985106;28;19929;-77
2022/09/08 07:24:13;;;;;;;;;;;18.20;99.90;;;;;;4995171;28;19925;-78
2022/09/08 07:26:46;;;;;;;;;;;18.10;99.90;;;;;;4989958;28;19937;-79
2022/09/08 07:29:18;;;;;;;;;;;18.20;99.90;;;;;;4993950;28;19925;-78
2022/09/08 07:31:49;;;;;;;;;;;18.10;99.90;;;;;;4978566;28;19952;-78
2022/09/08 07:37:07;;;;;;;;;;;18.10;99.90;;;;;;4993047;28;19977;-78
2022/09/08 07:39:45;;;;;;;;;;;18.10;99.90;;;;;;4993826;28;20017;-78
2022/09/08 07:42:39;;;;;;;;;;;18.10;99.90;;;;;;5004031;28;19932;-78
2022/09/08 07:45:30;;;;;;;;;;;18.10;99.90;;;;;;4994214;28;19926;-78
2022/09/08 07:48:09;;;;;;;;;;;18.10;99.90;;;;;;4978163;28;19981;-78
2022/09/08 07:53:54;;;;;;;;;;;18.10;99.90;;;;;;4964392;28;19932;-78
2022/09/08 07:56:43;;;;;;;;;;;18.10;99.90;;;;;;4980401;28;19926;-78
2022/09/08 08:02:55;;;;;;;;;;;18.10;99.90;;;;;;4999318;28;19930;-78
2022/09/08 08:05:26;;;;;;;;;;;18.00;99.90;;;;;;4987918;28;20036;-77
2022/09/08 08:08:02;;;;;;;;;;;18.10;99.90;;;;;;4984172;28;19933;-79
2022/09/08 08:10:35;;;;;;;;;;;18.10;99.90;;;;;;4987320;28;20024;-78
2022/09/08 08:13:07;;;;;;;;;;;18.00;99.90;;;;;;4972379;28;19980;-78
2022/09/08 08:15:38;;;;;;;;;;;18.10;99.90;;;;;;4985040;28;20308;-79
2022/09/08 08:18:08;;;;;;;;;;;18.00;99.90;;;;;;4985701;28;19937;-78
2022/09/08 08:20:40;;;;;;;;;;;18.00;99.90;;;;;;4989342;28;19988;-78
2022/09/08 08:23:13;;;;;;;;;;;18.00;99.90;;;;;;4984531;28;20361;-77
2022/09/08 08:28:19;;;;;;;;;;;18.00;99.90;;;;;;5046453;23;19997;-79
2022/09/08 08:30:56;;;;;;;;;;;17.90;99.90;;;;;;4944986;28;20005;-80
2022/09/08 08:36:27;;;;;;;;;;;18.00;99.90;;;;;;5040087;23;19925;-79
2022/09/08 08:39:02;;;;;;;;;;;18.00;99.90;;;;;;5022326;28;19925;-79
2022/09/08 08:41:34;;;;;;;;;;;18.00;99.90;;;;;;5011970;28;19926;-79
2022/09/08 08:44:10;;;;;;;;;;;18.00;99.90;;;;;;5033566;28;19932;-80
2022/09/08 08:46:58;;;;;;;;;;;18.00;99.90;;;;;;5041262;28;19925;-79
2022/09/08 08:49:58;;;;;;;;;;;18.00;99.90;;;;;;5031804;28;20303;-78
2022/09/08 08:52:40;;;;;;;;;;;18.00;99.90;;;;;;5024811;28;19932;-78
2022/09/08 08:55:25;;;;;;;;;;;17.90;99.90;;;;;;5033895;28;20311;-77
2022/09/08 09:00:40;;;;;;;;;;;18.00;99.90;;;;;;5062823;22;19926;-78
2022/09/08 09:03:37;;;;;;;;;;;18.00;99.90;;;;;;4997580;28;19933;-77
2022/09/08 09:06:13;;;;;;;;;;;17.90;99.90;;;;;;4905568;29;19983;-79
2022/09/08 09:08:54;;;;;;;;;;;18.00;99.90;;;;;;4975571;28;19933;-79
2022/09/08 09:11:48;;;;;;;;;;;18.00;99.90;;;;;;5000225;28;20402;-77
2022/09/08 09:14:59;;;;;;;;;;;;;;;;;;;;;
2022/09/08 09:18:01;;;;;;;;;;;17.90;99.90;;;;;;4988120;28;20395;-79
2022/09/08 09:20:55;;;;;;;;;;;18.00;99.90;;;;;;4978527;28;20013;-80
2022/09/08 09:23:53;;;;;;;;;;;17.90;99.90;;;;;;4990774;28;19930;-79
2022/09/08 09:26:27;;;;;;;;;;;18.00;99.90;;;;;;4980157;28;20021;-79
2022/09/08 09:29:07;;;;;;;;;;;18.00;99.90;;;;;;4984904;28;19936;-79
2022/09/08 09:31:58;;;;;;;;;;;18.00;99.90;;;;;;4980281;28;19932;-78
2022/09/08 09:34:38;;;;;;;;;;;18.00;99.90;;;;;;4984399;28;19930;-79
2022/09/08 09:41:13;;;;;;;;;;;18.00;99.90;;;;;;4912349;29;19962;-79
2022/09/08 09:44:08;;;;;;;;;;;18.00;99.90;;;;;;4885793;29;19938;-79
2022/09/08 09:47:08;;;;;;;;;;;18.00;99.90;;;;;;4870269;29;19934;-76
2022/09/08 09:50:02;;;;;;;;;;;18.00;99.90;;;;;;4944158;28;20319;-76
2022/09/08 09:52:36;;;;;;;;;;;18.00;99.90;;;;;;4979920;28;19926;-77
2022/09/08 09:58:25;;;;;;;;;;;18.00;99.90;;;;;;5001979;28;19930;-80
2022/09/08 10:01:26;;;;;;;;;;;18.00;99.90;;;;;;4982728;28;20385;-81
2022/09/08 10:07:25;;;;;;;;;;;18.00;99.90;;;;;;4961965;29;20398;-77
2022/09/08 10:17:28;;;;;;;;;;;18.10;99.90;;;;;;4961696;29;19973;-79
2022/09/08 10:27:04;;;;;;;;;;;18.00;99.90;;;;;;4954987;28;19921;-80
2022/09/08 10:35:38;;;;;;;;;;;18.10;99.90;;;;;;4980724;28;19934;-75
2022/09/08 10:38:26;;;;;;;;;;;18.10;99.90;;;;;;4987843;28;19926;-75
2022/09/08 10:41:09;;;;;;;;;;;18.10;99.90;;;;;;4980481;28;20575;-77
2022/09/08 10:43:47;;;;;;;;;;;18.20;99.90;;;;;;4987547;28;20009;-77
2022/09/08 10:46:25;;;;;;;;;;;18.20;99.90;;;;;;4992697;28;19961;-79
2022/09/08 10:49:01;;;;;;;;;;;18.20;99.90;;;;;;4993247;28;19933;-78
2022/09/08 10:51:48;;;;;;;;;;;18.30;99.90;;;;;;4988814;28;19926;-79
2022/09/08 10:54:34;;;;;;;;;;;18.30;99.90;;;;;;4972741;28;19973;-78
2022/09/08 10:57:21;;;;;;;;;;;18.40;99.90;;;;;;4973280;28;20496;-78
2022/09/08 11:00:11;;;;;;;;;;;18.40;99.90;;;;;;4990547;28;20020;-77
2022/09/08 11:02:48;;;;;;;;;;;18.40;99.90;;;;;;4986794;28;19930;-78
2022/09/08 11:05:34;;;;;;;;;;;18.40;99.90;;;;;;4991318;28;19926;-77
2022/09/08 11:08:20;;;;;;;;;;;18.40;99.90;;;;;;4990223;28;20416;-78
2022/09/08 11:11:22;;;;;;;;;;;18.40;99.90;;;;;;4969226;28;20577;-75
2022/09/08 11:13:59;;;;;;;;;;;18.50;99.90;;;;;;4987830;28;19926;-79
2022/09/08 11:16:41;;;;;;;;;;;18.50;99.90;;;;;;4980043;28;19925;-79
2022/09/08 11:19:26;;;;;;;;;;;18.50;99.90;;;;;;4989179;28;19926;-79
2022/09/08 11:21:59;;;;;;;;;;;18.50;99.90;;;;;;4991839;28;19933;-79
2022/09/08 11:24:31;;;;;;;;;;;18.60;99.90;;;;;;4989957;28;20479;-78
2022/09/08 11:27:04;;;;;;;;;;;18.60;99.90;;;;;;5001764;28;19926;-77
2022/09/08 11:30:06;;;;;;;;;;;18.70;99.90;;;;;;5002256;28;20031;-78
2022/09/08 11:32:37;;;;;;;;;;;18.70;99.90;;;;;;4985970;28;19985;-79
2022/09/08 11:35:17;;;;;;;;;;;18.70;99.90;;;;;;4980278;28;19926;-77
2022/09/08 11:37:55;;;;;;;;;;;18.70;99.90;;;;;;4993011;28;20300;-79
2022/09/08 11:40:30;;;;;;;;;;;18.70;99.90;;;;;;4993260;28;19940;-79
2022/09/08 11:43:08;;;;;;;;;;;18.70;99.90;;;;;;4977334;28;19936;-78
2022/09/08 11:45:45;;;;;;;;;;;18.80;99.90;;;;;;4990926;28;20393;-79
2022/09/08 11:48:26;;;;;;;;;;;18.80;99.90;;;;;;4990016;28;19926;-77
2022/09/08 11:51:01;;;;;;;;;;;18.80;99.90;;;;;;4944690;28;19965;-78
2022/09/08 11:53:34;;;;;;;;;;;18.80;99.90;;;;;;4971234;28;19934;-78
2022/09/08 11:56:09;;;;;;;;;;;18.80;99.90;;;;;;4986180;28;20418;-79
2022/09/08 11:58:46;;;;;;;;;;;18.90;99.90;;;;;;4982985;28;19926;-78
2022/09/08 12:01:27;;;;;;;;;;;18.90;99.90;;;;;;4990324;28;19957;-79
2022/09/08 12:04:23;;;;;;;;;;;18.90;99.90;;;;;;4987589;28;19926;-79
2022/09/08 12:07:09;;;;;;;;;;;18.90;99.90;;;;;;4933983;28;19927;-78
2022/09/08 12:10:00;;;;;;;;;;;19.00;99.90;;;;;;4971598;28;19925;-78
2022/09/08 12:12:37;;;;;;;;;;;19.00;99.90;;;;;;4986637;28;19979;-79
2022/09/08 12:15:19;;;;;;;;;;;19.00;99.90;;;;;;4987955;28;19965;-77
2022/09/08 12:20:44;;;;;;;;;;;19.00;99.90;;;;;;4989335;28;20388;-78
2022/09/08 12:23:26;;;;;;;;;;;19.00;99.90;;;;;;4987098;28;19933;-79
2022/09/08 12:26:11;;;;;;;;;;;19.00;99.90;;;;;;4994413;28;19941;-79
2022/09/08 12:28:47;;;;;;;;;;;19.10;99.90;;;;;;4991501;28;20017;-79
2022/09/08 12:34:51;;;;;;;;;;;19.00;99.90;;;;;;4994832;28;19926;-79
2022/09/08 12:41:08;;;;;;;;;;;19.10;99.90;;;;;;4980825;28;19989;-80
2022/09/08 12:43:40;;;;;;;;;;;19.10;99.90;;;;;;4985263;28;20886;-79
2022/09/08 12:46:26;;;;;;;;;;;19.20;99.90;;;;;;4989186;28;19934;-79
2022/09/08 12:48:55;;;;;;;;;;;19.20;99.90;;;;;;4973432;28;20364;-80
2022/09/08 12:51:29;;;;;;;;;;;19.20;99.90;;;;;;4972070;28;19992;-79
2022/09/08 12:54:18;;;;;;;;;;;19.20;99.90;;;;;;4991348;28;19976;-79
2022/09/08 12:56:57;;;;;;;;;;;19.20;99.90;;;;;;4990059;28;19934;-79
2022/09/08 12:59:34;;;;;;;;;;;19.20;99.90;;;;;;4984360;28;19980;-78
2022/09/08 13:02:18;;;;;;;;;;;19.20;99.90;;;;;;4989333;28;19949;-79
2022/09/08 13:04:54;;;;;;;;;;;19.20;99.90;;;;;;4992224;28;19988;-79
2022/09/08 13:07:31;;;;;;;;;;;19.30;99.90;;;;;;4985734;28;19932;-79
2022/09/08 13:10:07;;;;;;;;;;;19.30;99.90;;;;;;4985906;28;19926;-79
2022/09/08 13:13:10;;;;;;;;;;;19.30;99.90;;;;;;4971507;28;20299;-78
2022/09/08 13:15:42;;;;;;;;;;;19.30;99.90;;;;;;4947676;28;19969;-79
2022/09/08 13:18:19;;;;;;;;;;;19.40;99.90;;;;;;4946284;28;20025;-79
2022/09/08 13:20:51;;;;;;;;;;;19.40;99.90;;;;;;4965320;28;19930;-79
2022/09/08 13:23:29;;;;;;;;;;;19.40;99.90;;;;;;4972083;28;19925;-78
2022/09/08 13:26:04;;;;;;;;;;;19.40;99.90;;;;;;4987075;28;20364;-79
2022/09/08 13:28:50;;;;;;;;;;;19.50;99.90;;;;;;4969569;28;19933;-80
2022/09/08 13:31:21;;;;;;;;;;;19.50;99.80;;;;;;4972431;28;20063;-79
2022/09/08 13:34:08;;;;;;;;;;;19.50;99.70;;;;;;4972796;28;19933;-80
2022/09/08 13:36:44;;;;;;;;;;;19.60;99.70;;;;;;4997408;28;19937;-78
2022/09/08 13:39:27;;;;;;;;;;;19.60;99.50;;;;;;4989649;28;20020;-78
2022/09/08 13:42:03;;;;;;;;;;;19.60;99.40;;;;;;4970305;28;20024;-78
2022/09/08 13:45:12;;;;;;;;;;;19.60;99.30;;;;;;4965611;28;20319;-79
2022/09/08 13:48:01;;;;;;;;;;;19.60;99.40;;;;;;4987012;28;20408;-78
2022/09/08 13:50:45;;;;;;;;;;;19.60;99.30;;;;;;4989141;28;19960;-79
2022/09/08 13:53:27;;;;;;;;;;;19.60;99.30;;;;;;4983636;28;20072;-78
2022/09/08 13:56:03;;;;;;;;;;;19.60;99.40;;;;;;4989495;28;19930;-79
2022/09/08 13:58:43;;;;;;;;;;;19.60;99.40;;;;;;4987683;28;19926;-79
2022/09/08 14:01:34;;;;;;;;;;;19.60;99.40;;;;;;4990190;28;20389;-80
2022/09/08 14:04:10;;;;;;;;;;;19.60;99.30;;;;;;4983955;28;19925;-79
2022/09/08 14:06:44;;;;;;;;;;;19.60;99.40;;;;;;4987173;28;19937;-79
2022/09/08 14:09:19;;;;;;;;;;;19.60;99.20;;;;;;4986538;28;21849;-80
2022/09/08 14:15:26;;;;;;;;;;;19.70;96.50;;;;;;4997160;28;20319;-80
2022/09/08 14:21:38;;;;;;;;;;;19.70;97.70;;;;;;4974549;28;20376;-81
2022/09/08 14:30:14;;;;;;;;;;;19.80;97.90;;;;;;4975272;28;19929;-81
2022/09/08 14:33:04;;;;;;;;;;;19.80;97.70;;;;;;4994175;28;20017;-82
2022/09/08 14:35:42;;;;;;;;;;;19.80;97.80;;;;;;4985129;28;19922;-80
2022/09/08 14:38:22;;;;;;;;;;;19.80;98.00;;;;;;4993760;28;19926;-80
2022/09/08 14:40:55;;;;;;;;;;;19.80;97.80;;;;;;4994595;28;19932;-82
2022/09/08 14:43:32;;;;;;;;;;;19.80;97.80;;;;;;4991447;28;19933;-79
2022/09/08 14:46:03;;;;;;;;;;;19.80;97.80;;;;;;4980341;28;19925;-82
2022/09/08 14:48:34;;;;;;;;;;;19.80;98.00;;;;;;4996483;28;20000;-81
2022/09/08 14:57:32;;;;;;;;;;;19.90;98.00;;;;;;4968031;28;19949;-79
2022/09/08 15:00:11;;;;;;;;;;;19.90;97.60;;;;;;4962204;28;19926;-77
2022/09/08 15:02:39;;;;;;;;;;;19.90;97.50;;;;;;4983029;28;19938;-77
2022/09/08 15:05:07;;;;;;;;;;;19.90;97.20;;;;;;4962048;28;19936;-78
2022/09/08 15:07:35;;;;;;;;;;;19.90;97.20;;;;;;4973057;28;20012;-78
2022/09/08 15:10:05;;;;;;;;;;;20.00;96.90;;;;;;4967290;28;20404;-77
2022/09/08 15:12:38;;;;;;;;;;;20.00;96.90;;;;;;4983138;28;19931;-78
2022/09/08 15:15:30;;;;;;;;;;;20.00;96.80;;;;;;4965111;28;19966;-80
2022/09/08 15:17:58;;;;;;;;;;;20.00;96.80;;;;;;4987871;28;20013;-80
2022/09/08 15:20:32;;;;;;;;;;;20.00;96.60;;;;;;4968337;28;19925;-79
2022/09/08 15:23:03;;;;;;;;;;;20.10;96.80;;;;;;4986778;28;19929;-80
2022/09/08 15:25:39;;;;;;;;;;;20.10;96.90;;;;;;4980485;28;19926;-76
2022/09/08 15:28:16;;;;;;;;;;;20.10;97.00;;;;;;4981303;28;19937;-76
2022/09/08 15:30:45;;;;;;;;;;;20.10;96.90;;;;;;4969292;28;19966;-76
2022/09/08 15:33:16;;;;;;;;;;;20.10;97.10;;;;;;4974270;28;19930;-77
2022/09/08 15:35:59;;;;;;;;;;;20.10;96.80;;;;;;4975650;28;19934;-76
2022/09/08 15:38:45;;;;;;;;;;;20.10;96.70;;;;;;4978480;28;19926;-76
2022/09/08 15:41:18;;;;;;;;;;;20.20;96.90;;;;;;4980214;28;20020;-77
2022/09/08 15:43:52;;;;;;;;;;;20.20;96.60;;;;;;4980214;28;19990;-77
2022/09/08 15:46:24;;;;;;;;;;;20.20;96.70;;;;;;4979444;28;20028;-77
2022/09/08 15:48:56;;;;;;;;;;;20.20;96.80;;;;;;4962050;28;19934;-77
2022/09/08 15:51:24;;;;;;;;;;;20.20;96.20;;;;;;4964278;28;20096;-77
2022/09/08 15:53:58;;;;;;;;;;;20.30;96.80;;;;;;4980585;28;19955;-78
2022/09/08 15:56:43;;;;;;;;;;;20.30;96.60;;;;;;4980928;28;19930;-75
2022/09/08 15:59:26;;;;;;;;;;;20.30;96.40;;;;;;4983632;28;20393;-81
2022/09/08 16:01:56;;;;;;;;;;;20.30;95.90;;;;;;4982519;28;19933;-78
2022/09/08 16:04:26;;;;;;;;;;;20.30;95.60;;;;;;4961306;28;19933;-80
2022/09/08 16:06:54;;;;;;;;;;;20.30;95.30;;;;;;4989736;28;20355;-79
2022/09/08 16:09:22;;;;;;;;;;;20.40;95.70;;;;;;4982436;28;20380;-80
2022/09/08 16:11:52;;;;;;;;;;;20.40;96.00;;;;;;4981874;28;19930;-80
2022/09/08 16:14:29;;;;;;;;;;;20.40;96.00;;;;;;4966553;28;20412;-78
2022/09/08 16:17:13;;;;;;;;;;;20.40;96.00;;;;;;4983648;28;19988;-81
2022/09/08 16:19:43;;;;;;;;;;;20.40;95.90;;;;;;4979032;28;19933;-78
2022/09/08 16:22:19;;;;;;;;;;;20.40;96.10;;;;;;4981222;28;19933;-82
2022/09/08 16:24:53;;;;;;;;;;;20.40;96.20;;;;;;4968135;28;19930;-80
2022/09/08 16:27:39;;;;;;;;;;;20.40;96.00;;;;;;4984027;28;19985;-81
2022/09/08 16:30:10;;;;;;;;;;;20.50;96.10;;;;;;4987175;28;20496;-79
2022/09/08 16:32:52;;;;;;;;;;;20.50;95.90;;;;;;4989118;28;19926;-80
2022/09/08 16:35:27;;;;;;;;;;;20.50;95.80;;;;;;4990406;28;20089;-82
2022/09/08 16:37:56;;;;;;;;;;;20.50;95.80;;;;;;4984267;28;19940;-81
2022/09/08 16:40:25;;;;;;;;;;;20.50;95.90;;;;;;4991465;28;19926;-83
2022/09/08 16:42:55;;;;;;;;;;;20.50;95.70;;;;;;4987100;28;19926;-82
2022/09/08 16:45:41;;;;;;;;;;;20.50;95.80;;;;;;4983602;28;20416;-80
2022/09/08 16:48:15;;;;;;;;;;;20.50;95.80;;;;;;4991009;28;20388;-82
2022/09/08 16:51:02;;;;;;;;;;;20.60;95.90;;;;;;4974560;28;20656;-81
2022/09/08 16:53:32;;;;;;;;;;;20.60;95.90;;;;;;4987468;28;19930;-82
2022/09/08 16:56:03;;;;;;;;;;;20.60;95.90;;;;;;4990995;28;20154;-80
2022/09/08 16:58:31;;;;;;;;;;;20.60;96.00;;;;;;4989753;28;19926;-80
2022/09/08 17:01:19;;;;;;;;;;;20.60;95.90;;;;;;4986303;28;19992;-82
2022/09/08 17:03:51;;;;;;;;;;;20.60;95.90;;;;;;4977791;28;19976;-80
2022/09/08 17:06:27;;;;;;;;;;;20.60;95.90;;;;;;4986088;28;19957;-82
2022/09/08 17:09:00;;;;;;;;;;;20.60;95.80;;;;;;4982455;28;19926;-81
2022/09/08 17:11:37;;;;;;;;;;;20.60;95.80;;;;;;4987998;28;19941;-81
2022/09/08 17:14:04;;;;;;;;;;;20.60;95.90;;;;;;4992298;28;19934;-81
2022/09/08 17:16:39;;;;;;;;;;;20.60;95.80;;;;;;4973771;28;19930;-82
2022/09/08 17:19:10;;;;;;;;;;;20.60;95.80;;;;;;4991675;28;20277;-81
2022/09/08 17:22:02;;;;;;;;;;;20.70;95.90;;;;;;4987912;28;20004;-82
2022/09/08 17:24:36;;;;;;;;;;;20.70;95.90;;;;;;4981924;28;20295;-81
2022/09/08 17:27:33;;;;;;;;;;;20.70;96.00;;;;;;4966254;28;19950;-79
2022/09/08 17:30:12;;;;;;;;;;;20.70;96.00;;;;;;4929164;28;19934;-80
2022/09/08 17:33:00;;;;;;;;;;;20.70;96.00;;;;;;4978544;28;19941;-76
2022/09/08 17:35:36;;;;;;;;;;;20.70;96.00;;;;;;4927874;28;19989;-76
2022/09/08 17:38:19;;;;;;;;;;;20.60;96.00;;;;;;4978468;28;19934;-76
2022/09/08 17:40:54;;;;;;;;;;;20.60;96.00;;;;;;4977828;28;20487;-78
2022/09/08 17:43:24;;;;;;;;;;;20.60;96.00;;;;;;4976914;28;20308;-77
2022/09/08 17:45:58;;;;;;;;;;;20.60;96.00;;;;;;4971220;28;19937;-78
2022/09/08 17:48:30;;;;;;;;;;;20.60;96.00;;;;;;4956631;28;19961;-76
2022/09/08 17:51:14;;;;;;;;;;;20.60;96.10;;;;;;4973523;28;19938;-76
2022/09/08 17:53:49;;;;;;;;;;;20.60;96.10;;;;;;4970725;28;19926;-77
2022/09/08 17:56:49;;;;;;;;;;;20.60;96.00;;;;;;4977952;28;20027;-76
2022/09/08 17:59:26;;;;;;;;;;;20.60;96.10;;;;;;4959193;28;20024;-75
2022/09/08 18:01:58;;;;;;;;;;;20.60;96.00;;;;;;4970399;28;20151;-77
2022/09/08 18:04:27;;;;;;;;;;;20.50;96.00;;;;;;4979611;28;19929;-76
2022/09/08 18:06:56;;;;;;;;;;;20.50;96.00;;;;;;4980277;28;20005;-76